Raw Observation Data from the Huntsville Airport

SAUS80 KWBC 162300
METAR KHSV 162253Z 06023G31KT 5SM RA BR SCT013 OVC032 08/07 A2987 RMK
     AO2 PK WND 05034/2241 TSB26E46 SLP113 P0024 T00830072
SAUS44 KBMX 162255
MTRHSV
METAR KHSV 162253Z 06023G31KT 5SM RA BR SCT013 OVC032 08/07 A2987 
RMK AO2 PK WND 05034/2241 TSB26E46 SLP113 P0024 T00830072
SPUS80 KWBC 162233
SPECI KHSV 162227Z 04026G32KT 3SM TSRA BR SCT013 OVC032CB 08/07 A2990
     RMK AO2 PK WND 04032/2225 TSB26 OCNL LTGICCCCG OHD TS OHD MOV
     NE P0016
SPUS80 KWBC 162231 CCA
SPECI KHSV 162207Z COR 02014G24KT 3SM +RA BR SCT013 OVC032 08/07 A2999
     RMK AO2 P0007
SAUS44 KBMX 162229
MTRHSV
SPECI KHSV 162227Z 04026G32KT 3SM TSRA BR SCT013 OVC032CB 08/07 
A2990 RMK AO2 PK WND 04032/2225 TSB26 OCNL LTGICCCCG OHD TS OHD MOV 
NE P0016
SAUS44 KBMX 162226 COR
MTRHSV
SPECI KHSV 162207Z COR 02014G24KT 3SM +RA BR SCT013 OVC032 08/07 
A2999 RMK AO2 P0007
SAUS44 KBMX 162224 COR
MTRHSV
SPECI KHSV 162207Z COR 02014G24KT 3SM +RA BR SCT013 OVC032 08/07 
A2999 RMK AO2 P0007
SAUS44 KBMX 162224 COR
MTRHSV
SPECI KHSV 162207Z COR 02014G24KT 3SM +RA BR SCT013 OVC032 08/07 
A2999 RMK AO2 P0007
SPUS80 KWBC 162214
SPECI KHSV 162207Z 02014G24KT 3SM +RA BR SCT013 OVC032CB 08/07 A2999 RMK
     AO2 OCNL LTGICCG ALQDS TS ALQDS MOV NE P0007
SAUS44 KBMX 162209
MTRHSV
SPECI KHSV 162207Z 02014G24KT 3SM +RA BR SCT013 OVC032CB 08/07 A2999 
RMK AO2 OCNL LTGICCG ALQDS TS ALQDS MOV NE P0007
SAUS80 KWBC 162200 RRB
METAR KHSV 162153Z COR 34015KT 1 3/4SM R18R/5500VP6000FT +RA BR SCT013
     OVC032CB 08/07 A3004 RMK AO2 PK WND 36030/2102 SLP170 OCNL
     LTGICCG ALQDS TS ALQDS MOV NE P0025 T00830067
SAUS80 KWBC 162200
METAR KHSV 162153Z 34015KT 1 3/4SM R18R/5500VP6000FT +RA BR SCT013
     OVC032CB 08/07 A3004 RMK AO2 PK WND 36030/2102 SLP170 OCNL
     LTGICCG ALQDS TS ALQDS MOV NE T00830067
SAUS44 KBMX 162158
MTRHSV
METAR KHSV 162153Z COR 34015KT 1 3/4SM R18R/5500VP6000FT +RA BR 
SCT013 OVC032CB 08/07 A3004 RMK AO2 PK WND 36030/2102 SLP170 OCNL 
LTGICCG ALQDS TS ALQDS MOV NE P0025 T00830067
SAUS44 KBMX 162155
MTRHSV
METAR KHSV 162153Z 34015KT 1 3/4SM R18R/5500VP6000FT +RA BR SCT013 
OVC032CB 08/07 A3004 RMK AO2 PK WND 36030/2102 SLP170 OCNL LTGICCG 
ALQDS TS ALQDS MOV NE T00830067
SPUS80 KWBC 162146
SPECI KHSV 162142Z 32019G29KT 3SM +TSRA BR SCT013 OVC032CB 09/08 A3002
     RMK AO2 PK WND 36030/2102 PRESRR OCNL LTGICCG ALQDS TS ALQDS
     MOV NE $
SPUS80 KWBC 162142
SPECI KHSV 162139Z 33016G29KT 2 1/2SM +TSRA BR SCT013 OVC032CB 09/07
     A3000 RMK AO2 PK WND 36030/2102 PRESRR OCNL LTGICCG ALQDS TS
     ALQDS MOV NE $
SAUS44 KBMX 162141
MTRHSV
SPECI KHSV 162139Z 33016G29KT 2 1/2SM +TSRA BR SCT013 OVC032CB 09/07 
A3000 RMK AO2 PK WND 36030/2102 PRESRR OCNL LTGICCG ALQDS TS ALQDS 
MOV NE $
SPUS80 KWBC 162133
SPECI KHSV 162131Z 35022G26KT 1 3/4SM R18R/6000VP6000FT +TSRA BR SCT013
     OVC032CB 09/08 A2994 RMK AO2 PK WND 36030/2102 OCNL LTGICCG
     ALQDS TS ALQDS MOV NE $
SAUS44 KBMX 162133
MTRHSV
SPECI KHSV 162131Z 35022G26KT 1 3/4SM R18R/6000VP6000FT +TSRA BR 
SCT013 OVC032CB 09/08 A2994 RMK AO2 PK WND 36030/2102 OCNL LTGICCG 
ALQDS TS ALQDS MOV NE $
SPUS80 KWBC 162120
SPECI KHSV 162116Z 35013G24KT 2 1/2SM +TSRA BR SCT013 OVC032CB 09/08
     A2994 RMK AO2 PK WND 36030/2102 PRESRR OCNL LTGICCG ALQDS TS
     ALQDS MOV NE $
SPUS80 KWBC 162118 CCA
SPECI KHSV 162110Z 36018G30KT 3SM +TSRA BR SCT013 OVC032CB 09/08 A2992
     RMK AO2 PK WND 36030/2102 PRESRR OCNL LTGICCG ALQDS TS ALQDS
     MOV NE $
SPUS80 KWBC 162115
SPECI KHSV 162110Z 36018G30KT 3SM +TSRA BR SCT013 OVC032CB 09/08 A2992
     RMK AO2 PK WND 36030/2102 PRESRR OCNL LTGICCG ALQDS TS ALQDS
     MOV NE $
SAUS44 KBMX 162118
MTRHSV
SPECI KHSV 162116Z 35013G24KT 2 1/2SM +TSRA BR SCT013 OVC032CB 09/08 
A2994 RMK AO2 PK WND 36030/2102 PRESRR OCNL LTGICCG ALQDS TS ALQDS 
MOV NE $
SAUS44 KBMX 162112 COR
MTRHSV
SPECI KHSV 162110Z 36018G30KT 3SM +TSRA BR SCT013 OVC032CB 09/08 
A2992 RMK AO2 PK WND 36030/2102 PRESRR OCNL LTGICCG ALQDS TS ALQDS 
MOV NE $
SAUS44 KBMX 162112
MTRHSV
SPECI KHSV 162110Z 36018G30KT 3SM +TSRA BR SCT013 OVC032CB 09/08 
A2992 RMK AO2 PK WND 36030/2102 PRESRR OCNL LTGICCG ALQDS TS ALQDS 
MOV NE $
SAUS80 KWBC 162100 CCA
METAR KHSV 162053Z 35025G29KT 7SM -TSRA FEW011 OVC029CB 10/08 A2988 RMK
     AO2 PK WND 01031/2039 WSHFT 1940 TSB10RAB02 SLP115 OCNL
     LTGICCCCG ALQDS TS ALQDS MOV S-NE P0017 60017 T01000083
     53005
SAUS44 KBMX 162055 COR
MTRHSV
METAR KHSV 162053Z 35025G29KT 7SM -TSRA FEW011 OVC029CB 10/08 A2988 
RMK AO2 PK WND 01031/2039 WSHFT 1940 TSB10RAB02 SLP115 OCNL 
LTGICCCCG ALQDS TS ALQDS MOV S-NE P0017 60017 T01000083 53005
SPUS80 KWBC 162036
SPECI KHSV 162032Z 36021G31KT 3SM R18R/5000VP6000FT TSRA FEW013 BKN027
     OVC037CB 11/09 A2986 RMK AO2 PK WND 35031/2025 WSHFT 1940
     TSB10RAB02 OCNL LTGICCCCG ALQDS TS ALQDS MOV S-NE P0015
SAUS44 KBMX 162034
MTRHSV
SPECI KHSV 162032Z 36021G31KT 3SM R18R/5000VP6000FT TSRA FEW013 
BKN027 OVC037CB 11/09 A2986 RMK AO2 PK WND 35031/2025 WSHFT 1940 
TSB10RAB02 OCNL LTGICCCCG ALQDS TS ALQDS MOV S-NE P0015
SPUS80 KWBC 162026
SPECI KHSV 162022Z 36017G28KT 2 1/2SM R18R/5500VP6000FT -TSRA FEW013
     BKN029 OVC043CB 11/10 A2986 RMK AO2 PK WND 33030/2000 WSHFT
     1940 VIS 1 1/2V5 TSB10RAB02 OCNL LTGICCCCG S-NE TS S-NE MOV
     NE P0012 $
SAUS44 KBMX 162024
MTRHSV
SPECI KHSV 162022Z 36017G28KT 2 1/2SM R18R/5500VP6000FT -TSRA FEW013 
BKN029 OVC043CB 11/10 A2986 RMK AO2 PK WND 33030/2000 WSHFT 1940 VIS 
1 1/2V5 TSB10RAB02 OCNL LTGICCCCG S-NE TS S-NE MOV NE P0012 $
SAUS44 KBMX 162024
MTRHSV
SPECI KHSV 162022Z 36017G28KT 2 1/2SM R18R/5500VP6000FT -TSRA FEW013 
BKN029 OVC043CB 11/10 A2986 RMK AO2 PK WND 33030/2000 WSHFT 1940 VIS 
1 1/2V5 TSB10RAB02 OCNL LTGICCCCG S-NE TS S-NE MOV NE P0012 $
SPUS80 KWBC 162016
SPECI KHSV 162011Z 34016G29KT 2SM R18R/3000VP6000FT TS FEW009 SCT026
     OVC033CB 12/11 A2985 RMK AO2 PK WND 33030/2000 WSHFT 1940
     TSB10RAB02RAEMM OCNL LTGICCCCG VC ALQDS CB VC ALQDS MOV NE
     P0006 $
SPUS80 KWBC 162011
SPECI KHSV 162006Z 35024G30KT 2SM R18R/3000VP6000FT -RA BR SCT011
     BKN026CB OVC035 13/11 A2985 RMK AO2 PK WND 33030/2000 WSHFT
     1940 RAB02 CB VC ALQDS MOV NE P0006
SAUS44 KBMX 162008
MTRHSV
SPECI KHSV 162006Z 35024G30KT 2SM R18R/3000VP6000FT -RA BR SCT011 
BKN026CB OVC035 13/11 A2985 RMK AO2 PK WND 33030/2000 WSHFT 1940 
RAB02 CB VC ALQDS MOV NE P0006
SPUS80 KWBC 162001
SPECI KHSV 161957Z 36021G27KT 10SM FEW005 BKN030CB OVC065 14/12 A2981
     RMK AO2 PK WND 36026/1957 WSHFT 1940 CB SW-E MOV NE
SAUS80 KWBC 162000
METAR KHSV 161953Z 35020G32KT 10SM FEW004 BKN030CB OVC080 15/13 A2981
     RMK AO2 PK WND 33032/1946 WSHFT 1924 SLP090 CB VC SW-NE MOV
     NE T01500128
SAUS44 KBMX 161959
MTRHSV
SPECI KHSV 161957Z 36021G27KT 10SM FEW005 BKN030CB OVC065 14/12 
A2981 RMK AO2 PK WND 36026/1957 WSHFT 1940 CB SW-E MOV NE
SAUS44 KBMX 161955
MTRHSV
METAR KHSV 161953Z 35020G32KT 10SM FEW004 BKN030CB OVC080 15/13 
A2981 RMK AO2 PK WND 33032/1946 WSHFT 1924 SLP090 CB VC SW-NE MOV NE 
T01500128
SPUS80 KWBC 161948
SPECI KHSV 161943Z 33019G26KT 10SM FEW005 BKN038CB OVC100 17/14 A2982
     RMK AO2 PK WND 34026/1943 WSHFT 1924 CB VC SW-E MOV NE
SAUS44 KBMX 161945
MTRHSV
SPECI KHSV 161943Z 33019G26KT 10SM FEW005 BKN038CB OVC100 17/14 
A2982 RMK AO2 PK WND 34026/1943 WSHFT 1924 CB VC SW-E MOV NE
SPUS80 KWBC 161937
SPECI KHSV 161928Z COR 20022G26KT 10SM FEW009 SCT040CB BKN100 24/17
     A2980 RMK AO2 PK WND 19026/1927 CB SW-NE MOV NE
SAUS44 KBMX 161935
MTRHSV
SPECI KHSV 161928Z COR 20022G26KT 10SM FEW009 SCT040CB BKN100 24/17 
A2980 RMK AO2 PK WND 19026/1927 CB SW-NE MOV NE
SPUS80 KWBC 161932
SPECI KHSV 161928Z 20022G26KT 10SM FEW009 SCT040CB BKN100 24/17 A2980
     RMK AO2 PK WND 19026/1927 CB SW-NW MOV NE
SAUS44 KBMX 161930
MTRHSV
SPECI KHSV 161928Z 20022G26KT 10SM FEW009 SCT040CB BKN100 24/17 
A2980 RMK AO2 PK WND 19026/1927 CB SW-NW MOV NE
SAUS80 KWBC 161900 RRA
METAR KHSV 161853Z 19016G21KT 10SM SCT041 BKN055 23/17 A2981 RMK AO2
     WSHFT 1814 SLP089 T02330167
SAUS44 KBMX 161856
MTRHSV
METAR KHSV 161853Z 19016G21KT 10SM SCT041 BKN055 23/17 A2981 RMK AO2 
WSHFT 1814 SLP089 T02330167
SPUS80 KWBC 161833
SPECI KHSV 161830Z 20016G22KT 10SM FEW030 SCT037 BKN055 23/18 A2983 RMK
     AO2 WSHFT 1814
SAUS44 KBMX 161832
MTRHSV
SPECI KHSV 161830Z 20016G22KT 10SM FEW030 SCT037 BKN055 23/18 A2983 
RMK AO2 WSHFT 1814
SPUS80 KWBC 161819
SPECI KHSV 161810Z VRB04G21KT 10SM BKN030 BKN039 OVC046 20/17 A2985 RMK
     AO2
SAUS44 KBMX 161812
MTRHSV
SPECI KHSV 161810Z VRB04G21KT 10SM BKN030 BKN039 OVC046 20/17 A2985 
RMK AO2
SPUS80 KWBC 161801
SPECI KHSV 161756Z 20016G19KT 10SM BKN028 BKN037 OVC046 23/18 A2986 RMK
     AO2 PRESFR
SAUS80 KWBC 161800 RRC
METAR KHSV 161753Z 19013KT 10SM SCT026 BKN034 23/17 A2986 RMK AO2 PRESFR
     SLP107 60001 T02280172 10228 20139 58033
SAUS44 KBMX 161758
MTRHSV
SPECI KHSV 161756Z 20016G19KT 10SM BKN028 BKN037 OVC046 23/18 A2986 
RMK AO2 PRESFR
SAUS44 KBMX 161755
MTRHSV
METAR KHSV 161753Z 19013KT 10SM SCT026 BKN034 23/17 A2986 RMK AO2 
PRESFR SLP107 60001 T02280172 10228 20139 58033
SPUS80 KWBC 161739
SPECI KHSV 161736Z 22008KT 10SM SCT026 BKN034 21/17 A2988 RMK AO2
SAUS44 KBMX 161738
MTRHSV
SPECI KHSV 161736Z 22008KT 10SM SCT026 BKN034 21/17 A2988 RMK AO2
SAUS80 KWBC 161700
METAR KHSV 161653Z 28010G15KT 200V330 10SM BKN024 OVC038 19/17 A2993 RMK
     AO2 SLP131 T01940172
SAUS44 KBMX 161655
MTRHSV
METAR KHSV 161653Z 28010G15KT 200V330 10SM BKN024 OVC038 19/17 A2993 
RMK AO2 SLP131 T01940172
SPUS80 KWBC 161645
SPECI KHSV 161641Z 22013KT 10SM BKN024 BKN038 OVC048 22/18 A2994 RMK
     AO2
SAUS44 KBMX 161643
MTRHSV
SPECI KHSV 161641Z 22013KT 10SM BKN024 BKN038 OVC048 22/18 A2994 RMK 
AO2
SPUS80 KWBC 161612
SPECI KHSV 161604Z 20016G22KT 10SM SCT019 OVC050 21/18 A2995 RMK AO2
SAUS44 KBMX 161606
MTRHSV
SPECI KHSV 161604Z 20016G22KT 10SM SCT019 OVC050 21/18 A2995 RMK AO2
SAUS80 KWBC 161600
METAR KHSV 161553Z 21017G22KT 10SM BKN019 BKN024 OVC050 21/18 A2995 RMK
     AO2 SLP138 T02110178
SAUS44 KBMX 161556
MTRHSV
METAR KHSV 161553Z 21017G22KT 10SM BKN019 BKN024 OVC050 21/18 A2995 
RMK AO2 SLP138 T02110178
SAUS80 KWBC 161500
METAR KHSV 161453Z 17008KT 8SM BKN017 18/17 A2996 RMK AO2 SLP142 60001
     T01780167 51000
SAUS44 KBMX 161455
MTRHSV
METAR KHSV 161453Z 17008KT 8SM BKN017 18/17 A2996 RMK AO2 SLP142 
60001 T01780167 51000
SAUS80 KWBC 161400 RRA
METAR KHSV 161353Z 10005KT 7SM SCT010 OVC017 15/14 A2996 RMK AO2 SLP143
     T01500144
SAUS44 KBMX 161355
MTRHSV
METAR KHSV 161353Z 10005KT 7SM SCT010 OVC017 15/14 A2996 RMK AO2 
SLP143 T01500144
SAUS80 KWBC 161300
METAR KHSV 161253Z 00000KT 10SM OVC006 14/14 A2996 RMK AO2 RAE11B38E49
     SLP142 P0001 T01440139
SAUS44 KBMX 161255
MTRHSV
METAR KHSV 161253Z 00000KT 10SM OVC006 14/14 A2996 RMK AO2 
RAE11B38E49 SLP142 P0001 T01440139
SPUS80 KWBC 161206
SPECI KHSV 161200Z 04005KT 9SM -RA BKN005 OVC009 14/14 A2996 RMK AO2
     P0001
SAUS80 KWBC 161200 RRA
METAR KHSV 161153Z COR 02003KT 10SM -RA OVC006 14/13 A2996 RMK AO2
     RAB1057 CIG 003V008 SLP142 P0000 60003 70053 T01390133 10150
     20139 55003
SAUS80 KWBC 161200 RRA
METAR KHSV 161153Z 02003KT 10SM -RA OVC006 14/13 A2996 RMK AO2 RAB1057
     CIG 003V008 SLP142 P0000 60003 70054 T01390133 10150 20139
     55003
SAUS44 KBMX 161157
MTRHSV
METAR KHSV 161153Z COR 02003KT 10SM -RA OVC006 14/13 A2996 RMK AO2 
RAB1057 CIG 003V008 SLP142 P0000 60003 70053 T01390133 10150 20139 
55003
SAUS44 KBMX 161155
MTRHSV
METAR KHSV 161153Z 02003KT 10SM -RA OVC006 14/13 A2996 RMK AO2 
RAB1057 CIG 003V008 SLP142 P0000 60003 70054 T01390133 10150 20139 
55003
SPUS80 KWBC 161135
SPECI KHSV 161132Z 07004KT 8SM BKN006 OVC010 14/14 A2996 RMK AO2
     RAB1057E25 CIG 003V008 P0000
SAUS44 KBMX 161134
MTRHSV
SPECI KHSV 161132Z 07004KT 8SM BKN006 OVC010 14/14 A2996 RMK AO2 
RAB1057E25 CIG 003V008 P0000
SAUS80 KWBC 161100
METAR KHSV 161053Z 02004KT 9SM FEW005 OVC012 14/14 A2996 RMK AO2 RAE46
     SLP139 P0001 T01440139
SAUS44 KBMX 161055
MTRHSV
METAR KHSV 161053Z 02004KT 9SM FEW005 OVC012 14/14 A2996 RMK AO2 
RAE46 SLP139 P0001 T01440139
SPUS80 KWBC 161012
SPECI KHSV 161007Z 02008KT 3SM -RA BR SCT006 OVC012 14/14 A2997 RMK AO2
     P0000
SAUS44 KBMX 161008
MTRHSV
SPECI KHSV 161007Z 02008KT 3SM -RA BR SCT006 OVC012 14/14 A2997 RMK 
AO2 P0000
SAUS80 KWBC 161000 RRB
METAR KHSV 160953Z 36007KT 2 1/2SM -RA BR BKN006 OVC012 14/14 A2997 RMK
     AO2 CIG 003V008 SLP144 DZB07E38RAB12 P0001 T01390139
SAUS44 KBMX 160956
MTRHSV
METAR KHSV 160953Z 36007KT 2 1/2SM -RA BR BKN006 OVC012 14/14 A2997 
RMK AO2 CIG 003V008 SLP144 DZB07E38RAB12 P0001 T01390139
SPUS80 KWBC 160923
SPECI KHSV 160919Z COR 32006KT 2SM -RADZ BR OVC006 14/14 A2998 RMK AO2
     DZB07RAB12 P0001
SAUS44 KBMX 160921
MTRHSV
SPECI KHSV 160919Z COR 32006KT 2SM -RADZ BR OVC006 14/14 A2998 RMK 
AO2 DZB07RAB12 P0001
SAUS80 KWBC 160900
METAR KHSV 160853Z 00000KT 9SM OVC006 14/14 A2997 RMK AO2 RAE13 CIG
     004V009 SLP143 P0001 60001 T01440144 56009
SAUS44 KBMX 160854
MTRHSV
METAR KHSV 160853Z 00000KT 9SM OVC006 14/14 A2997 RMK AO2 RAE13 CIG 
004V009 SLP143 P0001 60001 T01440144 56009
SPUS80 KWBC 160816
SPECI KHSV 160813Z 00000KT 10SM BKN006 OVC022 14/14 A2998 RMK AO2 RAE13
     P0001
SAUS44 KBMX 160814
MTRHSV
SPECI KHSV 160813Z 00000KT 10SM BKN006 OVC022 14/14 A2998 RMK AO2 
RAE13 P0001
SAUS80 KWBC 160800
METAR KHSV 160753Z 06003KT 10SM -RA FEW006 OVC024 14/14 A2998 RMK AO2
     RAB07E16B40 SLP146 P0000 T01440139
SAUS44 KBMX 160755
MTRHSV
METAR KHSV 160753Z 06003KT 10SM -RA FEW006 OVC024 14/14 A2998 RMK 
AO2 RAB07E16B40 SLP146 P0000 T01440139
SPUS80 KWBC 160741
SPECI KHSV 160739Z 00000KT 10SM SCT006 OVC024 14/14 A2998 RMK AO2
     RAB07E16 P0000
SAUS44 KBMX 160740
MTRHSV
SPECI KHSV 160739Z 00000KT 10SM SCT006 OVC024 14/14 A2998 RMK AO2 
RAB07E16 P0000
SPUS80 KWBC 160723
SPECI KHSV 160720Z 34004KT 10SM BKN006 OVC028 14/14 A2999 RMK AO2
     RAB07E16 P0000
SAUS44 KBMX 160721
MTRHSV
SPECI KHSV 160720Z 34004KT 10SM BKN006 OVC028 14/14 A2999 RMK AO2 
RAB07E16 P0000
SAUS80 KWBC 160700
METAR KHSV 160653Z 00000KT 10SM FEW004 OVC028 14/14 A2998 RMK AO2 SLP149
     T01440139
SAUS44 KBMX 160654
MTRHSV
METAR KHSV 160653Z 00000KT 10SM FEW004 OVC028 14/14 A2998 RMK AO2 
SLP149 T01440139
SPUS80 KWBC 160645
SPECI KHSV 160641Z 00000KT 10SM FEW004 OVC028 14/14 A2999 RMK AO2
SAUS44 KBMX 160642
MTRHSV
SPECI KHSV 160641Z 00000KT 10SM FEW004 OVC028 14/14 A2999 RMK AO2
SPUS80 KWBC 160633
SPECI KHSV 160630Z 00000KT 10SM FEW004 OVC030 14/14 A3000 RMK AO2
SAUS44 KBMX 160631
MTRHSV
SPECI KHSV 160630Z 00000KT 10SM FEW004 OVC030 14/14 A3000 RMK AO2
SAUS80 KWBC 160600
METAR KHSV 160553Z 06004KT 9SM SCT029 BKN036 OVC046 14/14 A3000 RMK AO2
     RAE03 SLP154 P0000 60013 T01440139 10172 20144 402280144
     57010
SAUS44 KBMX 160555
MTRHSV
METAR KHSV 160553Z 06004KT 9SM SCT029 BKN036 OVC046 14/14 A3000 RMK 
AO2 RAE03 SLP154 P0000 60013 T01440139 10172 20144 402280144 57010
SAUS80 KWBC 160500
METAR KHSV 160453Z 06004KT 10SM -RA BKN036 BKN047 BKN070 14/14 A3001 RMK
     AO2 RAB27 SLP156 P0000 T01440139
SAUS44 KBMX 160455
MTRHSV
METAR KHSV 160453Z 06004KT 10SM -RA BKN036 BKN047 BKN070 14/14 A3001 
RMK AO2 RAB27 SLP156 P0000 T01440139
SAUS80 KWBC 160400
METAR KHSV 160353Z 06004KT 10SM BKN038 OVC048 14/14 A3002 RMK AO2 RAE44
     SLP161 P0006 T01440139
SAUS44 KBMX 160355
MTRHSV
METAR KHSV 160353Z 06004KT 10SM BKN038 OVC048 14/14 A3002 RMK AO2 
RAE44 SLP161 P0006 T01440139
SAUS80 KWBC 160300
METAR KHSV 160253Z 02004KT 9SM -RA OVC036 14/14 A3003 RMK AO2 SLP165
     P0007 60007 T01440139 51018
SAUS44 KBMX 160256
MTRHSV
METAR KHSV 160253Z 02004KT 9SM -RA OVC036 14/14 A3003 RMK AO2 SLP165 
P0007 60007 T01440139 51018
SPUS80 KWBC 160232
SPECI KHSV 160228Z 33006KT 4SM RA BR SCT007 OVC037 15/14 A3003 RMK AO2
     P0003
SAUS44 KBMX 160230
MTRHSV
SPECI KHSV 160228Z 33006KT 4SM RA BR SCT007 OVC037 15/14 A3003 RMK 
AO2 P0003
SPUS80 KWBC 160218
SPECI KHSV 160213Z 35005KT 10SM BKN007 OVC035 16/14 A3002 RMK AO2 RAE03
     P0000
SAUS44 KBMX 160215
MTRHSV
SPECI KHSV 160213Z 35005KT 10SM BKN007 OVC035 16/14 A3002 RMK AO2 
RAE03 P0000
SAUS80 KWBC 160200
METAR KHSV 160153Z 33005KT 10SM -RA OVC009 16/15 A3002 RMK AO2 RAB53 CIG
     007V012 SLP161 P0000 T01560150
SAUS44 KBMX 160155
MTRHSV
METAR KHSV 160153Z 33005KT 10SM -RA OVC009 16/15 A3002 RMK AO2 RAB53 
CIG 007V012 SLP161 P0000 T01560150
SPUS80 KWBC 160120
SPECI KHSV 160117Z 33005KT 10SM BKN009 OVC038 16/15 A3000 RMK AO2 CIG
     007V012
SAUS44 KBMX 160118
MTRHSV
SPECI KHSV 160117Z 33005KT 10SM BKN009 OVC038 16/15 A3000 RMK AO2 
CIG 007V012
SAUS80 KWBC 160100
METAR KHSV 160053Z 32004KT 10SM FEW007 OVC038 17/16 A3000 RMK AO2 RAE04
     SLP155 P0000 T01670156
SAUS44 KBMX 160055
MTRHSV
METAR KHSV 160053Z 32004KT 10SM FEW007 OVC038 17/16 A3000 RMK AO2 
RAE04 SLP155 P0000 T01670156
SPUS80 KWBC 160012
SPECI KHSV 160005Z 33007KT 10SM FEW006 BKN040 OVC050 17/16 A2997 RMK AO2
     RAE04 P0000
SAUS44 KBMX 160006
MTRHSV
SPECI KHSV 160005Z 33007KT 10SM FEW006 BKN040 OVC050 17/16 A2997 RMK 
AO2 RAE04 P0000
SAUS80 KWBC 160000 RRA
METAR KHSV 152353Z 35010KT 3SM -RA FEW006 BKN026 OVC055 17/16 A2997 RMK
     AO2 WSHFT 2240 SFC VIS 7 SLP146 P0026 60026 T01720161 10228
     20172 53018
SAUS44 KBMX 152354
MTRHSV
METAR KHSV 152353Z 35010KT 3SM -RA FEW006 BKN026 OVC055 17/16 A2997 
RMK AO2 WSHFT 2240 SFC VIS 7 SLP146 P0026 60026 T01720161 10228 
20172 53018
SPUS80 KWBC 152346
SPECI KHSV 152341Z 34008KT 2SM RA BR FEW007 BKN017 OVC050 18/17 A2996
     RMK AO2 WSHFT 2240 SFC VIS 2 1/2 P0024
SAUS44 KBMX 152342
MTRHSV
SPECI KHSV 152341Z 34008KT 2SM RA BR FEW007 BKN017 OVC050 18/17 
A2996 RMK AO2 WSHFT 2240 SFC VIS 2 1/2 P0024
SPUS80 KWBC 152318
SPECI KHSV 152316Z 31008KT 2SM RA BR FEW008 SCT025 OVC033 18/17 A2996
     RMK AO2 WSHFT 2240 SFC VIS 3 P0012

USA.gov is the U.S. government's official web portal to all federal, state and local government web resources and services.